createdAt,value
2019-03-25T00:01:51.739Z,7.40
2019-03-25T00:06:56.472Z,7.75
2019-03-25T00:12:01.123Z,6.60
2019-03-25T00:17:05.866Z,5.80
2019-03-25T00:22:10.456Z,7.00
2019-03-25T00:27:15.100Z,6.25
2019-03-25T00:32:19.725Z,4.60
2019-03-25T00:37:24.349Z,4.00
2019-03-25T00:42:28.901Z,5.40
2019-03-25T00:47:33.558Z,6.00
2019-03-25T00:52:38.189Z,4.50
2019-03-25T00:57:42.745Z,5.00
2019-03-25T01:02:47.513Z,5.00
2019-03-25T01:07:52.151Z,6.00
2019-03-25T01:12:57.075Z,6.40
2019-03-25T01:18:01.618Z,4.00
2019-03-25T01:23:06.341Z,5.20
2019-03-25T01:28:10.973Z,4.75
2019-03-25T01:33:15.655Z,5.75
2019-03-25T01:38:20.274Z,6.00
2019-03-25T01:43:24.825Z,5.60
2019-03-25T01:48:29.432Z,5.25
2019-03-25T01:53:34.114Z,4.00
2019-03-25T01:58:38.674Z,7.75
2019-03-25T02:03:43.371Z,3.00
2019-03-25T02:08:47.962Z,5.00
2019-03-25T02:13:52.633Z,4.75
2019-03-25T02:18:57.284Z,6.50
2019-03-25T02:24:01.906Z,4.00
2019-03-25T02:29:06.544Z,3.25
2019-03-25T02:34:11.376Z,4.80
2019-03-25T02:39:16.030Z,4.80
2019-03-25T02:44:20.851Z,4.00
2019-03-25T02:49:25.447Z,5.00
2019-03-25T02:54:30.144Z,5.25
2019-03-25T02:59:34.761Z,4.00
2019-03-25T03:04:39.400Z,3.60
2019-03-25T03:09:43.996Z,4.60
2019-03-25T03:14:48.580Z,4.50
2019-03-25T03:19:55.263Z,3.00
2019-03-25T03:24:59.580Z,5.00
2019-03-25T03:30:04.397Z,5.75
2019-03-25T03:35:09.278Z,4.60
2019-03-25T03:40:14.638Z,4.40
2019-03-25T03:45:19.352Z,3.00
2019-03-25T03:50:28.884Z,4.00
2019-03-25T03:55:34.966Z,4.60
2019-03-25T04:00:39.650Z,4.00
2019-03-25T04:05:44.327Z,4.00
2019-03-25T04:10:49.060Z,3.75
2019-03-25T04:15:53.581Z,3.75
2019-03-25T04:20:58.231Z,5.25
2019-03-25T04:26:02.835Z,3.75
2019-03-25T04:31:07.383Z,4.50
2019-03-25T04:36:12.028Z,4.75
2019-03-25T04:41:16.643Z,4.00
2019-03-25T04:46:21.238Z,3.00
2019-03-25T04:51:25.864Z,4.00
2019-03-25T04:56:39.030Z,2.00
2019-03-25T05:01:36.941Z,2.80
2019-03-25T05:06:41.527Z,4.00
2019-03-25T05:11:46.097Z,2.25
2019-03-25T05:16:50.657Z,3.00
2019-03-25T05:21:55.195Z,5.50
2019-03-25T05:26:59.780Z,4.00
2019-03-25T05:32:05.447Z,2.50
2019-03-25T05:37:10.098Z,3.25
2019-03-25T05:42:14.775Z,3.00
2019-03-25T05:47:19.436Z,4.00
2019-03-25T05:52:24.139Z,2.75
2019-03-25T05:57:28.763Z,2.00
2019-03-25T06:02:33.348Z,3.00
2019-03-25T06:07:37.991Z,3.25
2019-03-25T06:12:42.690Z,5.00
2019-03-25T06:17:47.336Z,3.20
2019-03-25T06:22:51.869Z,1.60
2019-03-25T06:27:56.517Z,1.50
2019-03-25T06:33:11.935Z,2.00
2019-03-25T06:38:07.904Z,3.00
2019-03-25T06:43:12.458Z,1.75
2019-03-25T06:48:17.039Z,4.00
2019-03-25T06:53:21.683Z,2.60
2019-03-25T06:58:26.928Z,3.00
2019-03-25T07:03:31.712Z,2.75
2019-03-25T07:08:36.310Z,3.00
2019-03-25T07:13:40.882Z,3.00
2019-03-25T07:18:45.691Z,4.80
2019-03-25T07:23:50.275Z,1.40
2019-03-25T07:28:54.867Z,2.40
2019-03-25T07:33:59.416Z,3.00
2019-03-25T07:39:05.589Z,8.75
2019-03-25T07:44:10.187Z,12.60
2019-03-25T07:49:14.758Z,12.00
2019-03-25T07:54:19.392Z,16.00
2019-03-25T07:59:24.098Z,19.50
2019-03-25T08:04:28.888Z,11.00
2019-03-25T08:09:33.523Z,11.00
2019-03-25T08:14:38.130Z,7.00
2019-03-25T08:19:42.784Z,10.20
2019-03-25T08:24:47.541Z,6.00
2019-03-25T08:29:52.219Z,5.60
2019-03-25T08:34:57.038Z,4.60
2019-03-25T08:40:01.724Z,5.75
2019-03-25T08:45:08.433Z,5.40
2019-03-25T08:50:13.362Z,3.40
2019-03-25T08:55:18.093Z,6.80
2019-03-25T09:00:22.835Z,4.80
2019-03-25T09:05:27.579Z,3.00
2019-03-25T09:10:32.301Z,3.50
2019-03-25T09:15:36.954Z,2.60
2019-03-25T09:20:42.084Z,3.60
2019-03-25T09:25:46.863Z,3.00
2019-03-25T09:31:20.768Z,2.00
2019-03-25T09:36:25.602Z,3.50
2019-03-25T09:41:30.283Z,2.00
2019-03-25T09:46:36.843Z,2.67
2019-03-25T09:51:41.587Z,3.50
2019-03-25T09:56:46.287Z,3.00
2019-03-25T10:01:52.619Z,2.60
2019-03-25T10:06:57.646Z,1.75
2019-03-25T10:12:02.294Z,1.75
2019-03-25T10:17:06.929Z,3.00
2019-03-25T10:22:11.581Z,2.25
2019-03-25T10:27:16.172Z,2.50
2019-03-25T10:32:20.966Z,3.00
2019-03-25T10:37:25.547Z,2.00
2019-03-25T10:42:30.283Z,1.25
2019-03-25T10:47:34.922Z,1.50
2019-03-25T10:52:39.588Z,1.00
2019-03-25T10:57:44.136Z,2.75
2019-03-25T11:02:48.777Z,4.00
2019-03-25T11:07:53.473Z,3.50
2019-03-25T11:12:58.024Z,2.00
2019-03-25T11:18:02.685Z,2.00
2019-03-25T11:23:07.385Z,1.00
2019-03-25T11:28:12.394Z,1.00
2019-03-25T11:33:17.082Z,2.00
2019-03-25T11:38:21.800Z,1.40
2019-03-25T11:43:26.338Z,1.00
2019-03-25T11:48:30.954Z,2.75
2019-03-25T11:53:35.635Z,0.50
2019-03-25T11:58:40.186Z,1.00
2019-03-25T12:03:44.896Z,2.50
2019-03-25T12:08:49.463Z,1.00
2019-03-25T12:13:54.237Z,0.80
2019-03-25T12:18:58.839Z,0.75
2019-03-25T12:24:03.548Z,0.20
2019-03-25T12:29:08.158Z,2.00
2019-03-25T12:34:12.750Z,4.00
2019-03-25T12:39:17.350Z,3.00
2019-03-25T12:44:21.962Z,5.50
2019-03-25T12:49:26.691Z,6.00
2019-03-25T12:54:31.249Z,6.20
2019-03-25T12:59:41.291Z,7.25
2019-03-25T13:04:42.156Z,8.00
2019-03-25T13:09:46.794Z,13.50
2019-03-25T13:14:51.343Z,11.50
2019-03-25T13:19:55.892Z,13.20
2019-03-25T13:25:00.473Z,14.25
2019-03-25T13:30:05.960Z,15.60
2019-03-25T13:35:10.678Z,18.60
2019-03-25T13:40:15.798Z,20.20
2019-03-25T13:45:20.465Z,25.00
2019-03-25T13:50:25.140Z,19.00
2019-03-25T13:55:29.679Z,24.25
2019-03-25T14:00:39.318Z,31.50
2019-03-25T14:05:44.014Z,40.75
2019-03-25T14:10:48.624Z,66.40
2019-03-25T14:15:53.253Z,62.60
2019-03-25T14:20:57.888Z,62.20
2019-03-25T14:26:02.446Z,61.20
2019-03-25T14:31:07.021Z,61.50
2019-03-25T14:36:11.605Z,61.00
2019-03-25T14:41:16.160Z,55.75
2019-03-25T14:46:20.766Z,57.75
2019-03-25T14:51:25.432Z,54.25
2019-03-25T14:56:31.544Z,57.50
2019-03-25T15:01:36.573Z,54.75
2019-03-25T15:06:41.302Z,54.20
2019-03-25T15:11:45.950Z,50.00
2019-03-25T15:16:50.500Z,48.75
2019-03-25T15:21:55.240Z,49.60
2019-03-25T15:26:59.799Z,48.25
2019-03-25T15:32:04.644Z,49.50
2019-03-25T15:37:09.309Z,48.00
2019-03-25T15:42:13.996Z,49.20
2019-03-25T15:47:19.411Z,49.25
2019-03-25T15:52:24.009Z,44.75
2019-03-25T15:57:28.579Z,47.00
2019-03-25T16:02:33.263Z,44.20
2019-03-25T16:07:37.821Z,44.40
2019-03-25T16:12:42.529Z,42.50
2019-03-25T16:17:47.082Z,43.25
2019-03-25T16:22:51.636Z,43.50
2019-03-25T16:27:56.192Z,41.80
2019-03-25T16:33:00.789Z,38.20
2019-03-25T16:38:05.425Z,36.75
2019-03-25T16:43:10.142Z,42.00
2019-03-25T16:48:14.801Z,35.00
2019-03-25T16:53:19.384Z,41.50
2019-03-25T16:58:24.083Z,35.60
2019-03-25T17:03:28.673Z,40.50
2019-03-25T17:08:33.266Z,35.60
2019-03-25T17:13:37.958Z,31.60
2019-03-25T17:18:42.589Z,38.20
2019-03-25T17:23:47.226Z,37.25
2019-03-25T17:28:51.812Z,37.40
2019-03-25T17:33:56.462Z,39.00
2019-03-25T17:39:01.052Z,34.60
2019-03-25T17:44:05.712Z,33.00
2019-03-25T17:49:10.302Z,30.50
2019-03-25T17:54:14.919Z,32.00
2019-03-25T17:59:19.494Z,33.25
2019-03-25T18:04:24.088Z,30.40
2019-03-25T18:09:28.731Z,29.20
2019-03-25T18:14:33.300Z,30.25
2019-03-25T18:19:37.982Z,27.60
2019-03-25T18:24:42.581Z,29.50
2019-03-25T18:29:47.202Z,28.40
2019-03-25T18:34:51.872Z,30.00
2019-03-25T18:39:56.469Z,25.00
2019-03-25T18:45:01.251Z,28.80
2019-03-25T18:50:06.337Z,27.25
2019-03-25T18:55:13.453Z,25.60
2019-03-25T19:00:40.215Z,25.20
2019-03-25T19:05:44.837Z,31.50
2019-03-25T19:10:49.435Z,21.75
2019-03-25T19:15:54.087Z,25.50
2019-03-25T19:20:58.714Z,23.40
2019-03-25T19:26:03.368Z,25.25
2019-03-25T19:31:08.065Z,20.20
2019-03-25T19:36:12.725Z,21.75
2019-03-25T19:41:22.904Z,24.00
2019-03-25T19:46:23.707Z,20.75
2019-03-25T19:51:28.415Z,21.75
2019-03-25T19:56:33.053Z,24.50
2019-03-25T20:01:37.702Z,23.25
2019-03-25T20:06:42.436Z,24.75
2019-03-25T20:11:47.078Z,21.00
2019-03-25T20:16:51.867Z,21.50
2019-03-25T20:22:05.265Z,22.40
2019-03-25T20:27:09.859Z,19.00
2019-03-25T20:38:06.562Z,16.75
2019-03-25T20:43:11.188Z,18.80
2019-03-25T20:48:15.801Z,18.50
2019-03-25T20:53:20.505Z,18.00
2019-03-25T20:58:25.184Z,19.60
2019-03-25T21:03:29.723Z,23.75
2019-03-25T21:08:34.479Z,19.25
2019-03-25T21:13:39.121Z,17.75
2019-03-25T21:18:43.736Z,17.40
2019-03-25T21:23:48.284Z,18.25
2019-03-25T21:28:52.867Z,19.00
2019-03-25T21:33:57.619Z,17.75
2019-03-25T21:39:02.307Z,17.00
2019-03-25T21:44:06.977Z,17.40
2019-03-25T21:49:11.588Z,18.00
2019-03-25T21:54:16.162Z,16.25
2019-03-25T21:59:20.801Z,17.00
2019-03-25T22:04:25.358Z,19.00
2019-03-25T22:09:29.934Z,13.50
2019-03-25T22:14:34.559Z,14.75
2019-03-25T22:19:39.129Z,14.50
2019-03-25T22:24:43.683Z,11.50
2019-03-25T22:29:48.267Z,18.20
2019-03-25T22:34:52.849Z,12.25
2019-03-25T22:39:57.456Z,13.50
2019-03-25T22:45:02.068Z,14.00
2019-03-25T22:50:10.027Z,13.40
2019-03-25T22:55:14.584Z,10.60
2019-03-25T23:00:23.102Z,11.00
2019-03-25T23:05:27.825Z,12.00
2019-03-25T23:10:32.515Z,11.50
2019-03-25T23:15:37.088Z,16.00
2019-03-25T23:20:41.761Z,10.00
2019-03-25T23:25:46.556Z,11.40
2019-03-25T23:30:51.197Z,12.25
2019-03-25T23:35:55.792Z,10.20
2019-03-25T23:41:00.480Z,12.00
2019-03-25T23:46:05.363Z,10.50
2019-03-25T23:51:10.009Z,11.40
2019-03-25T23:56:14.621Z,9.60
